Time;durP1;ratioP1;P1;durP2;ratioP2;P2;SDS_P1;SDS_P2;PMS_P1;PMS_P2;Temp;Humidity;BMP_temperature;BMP_pressure;BME280_temperature;BME280_humidity;BME280_pressure;Samples;Min_cycle;Max_cycle;Signal;HPM_P1;HPM_P2
2023/07/03 00:00:42;;;;;;;9.23;6.53;;;;;;;;;;5029016;28;20493;-70
2023/07/03 00:03:13;;;;;;;15.47;5.33;;;;;;;;;;5044730;28;20443;-69
2023/07/03 00:05:43;;;;;;;6.30;5.70;;;;;;;;;;5044045;28;20449;-69
2023/07/03 00:08:09;;;;;;;9.70;6.43;;;;;;;;;;5028936;28;20518;-69
2023/07/03 00:10:35;;;;;;;8.07;6.60;;;;;;;;;;5029808;28;20518;-69
2023/07/03 00:13:01;;;;;;;8.57;6.47;;;;;;;;;;5029561;28;20505;-69
2023/07/03 00:15:27;;;;;;;9.10;6.00;;;;;;;;;;5029498;28;20496;-69
2023/07/03 00:17:53;;;;;;;5.87;5.40;;;;;;;;;;5028958;28;20447;-69
2023/07/03 00:20:19;;;;;;;19.23;6.50;;;;;;;;;;5029188;28;20514;-69
2023/07/03 00:22:46;;;;;;;6.23;5.63;;;;;;;;;;5029681;28;20447;-70
2023/07/03 00:25:12;;;;;;;9.07;6.03;;;;;;;;;;5029039;28;20773;-69
2023/07/03 00:27:38;;;;;;;11.90;6.33;;;;;;;;;;5028589;28;20947;-69
2023/07/03 00:30:06;;;;;;;6.93;6.13;;;;;;;;;;5028954;28;20432;-69
2023/07/03 00:32:32;;;;;;;6.80;6.10;;;;;;;;;;5043983;28;20462;-69
2023/07/03 00:34:58;;;;;;;19.73;6.00;;;;;;;;;;5029491;28;20484;-69
2023/07/03 00:37:24;;;;;;;10.23;5.60;;;;;;;;;;5028366;28;20486;-69
2023/07/03 00:39:50;;;;;;;9.33;5.47;;;;;;;;;;5028502;28;20965;-69
2023/07/03 00:42:16;;;;;;;14.40;6.33;;;;;;;;;;5029476;28;20462;-69
2023/07/03 00:44:42;;;;;;;13.67;6.50;;;;;;;;;;5044960;28;20427;-69
2023/07/03 00:47:09;;;;;;;10.30;5.63;;;;;;;;;;5028916;28;20434;-70
2023/07/03 00:49:35;;;;;;;10.30;6.30;;;;;;;;;;5028693;28;20479;-69
2023/07/03 00:52:02;;;;;;;6.90;5.37;;;;;;;;;;5031988;28;20779;-70
2023/07/03 00:54:28;;;;;;;8.43;6.07;;;;;;;;;;5033488;28;20424;-69
2023/07/03 00:56:54;;;;;;;10.27;5.80;;;;;;;;;;5032096;28;20487;-69
2023/07/03 00:59:20;;;;;;;10.10;5.67;;;;;;;;;;5031960;28;20449;-69
2023/07/03 01:02:05;;;;;;;7.13;6.43;;;;;;;;;;5032530;28;20523;-69
2023/07/03 01:04:49;;;;;;;6.33;5.60;;;;;;;;;;5030953;28;20423;-69
2023/07/03 01:07:16;;;;;;;7.97;5.57;;;;;;;;;;5031298;28;20442;-69
2023/07/03 01:09:51;;;;;;;6.23;5.63;;;;;;;;;;5032698;28;20439;-70
2023/07/03 01:12:18;;;;;;;6.57;5.83;;;;;;;;;;5032333;28;20952;-69
2023/07/03 01:14:45;;;;;;;6.50;6.07;;;;;;;;;;5032589;28;20953;-69
2023/07/03 01:17:13;;;;;;;9.60;6.57;;;;;;;;;;5031413;28;20594;-69
2023/07/03 01:19:41;;;;;;;14.73;5.93;;;;;;;;;;5047151;28;20431;-69
2023/07/03 01:22:10;;;;;;;13.47;7.37;;;;;;;;;;5046723;28;20585;-70
2023/07/03 01:24:36;;;;;;;5.57;5.17;;;;;;;;;;5031925;28;20800;-69
2023/07/03 01:27:03;;;;;;;7.27;6.37;;;;;;;;;;5031964;28;20482;-69
2023/07/03 01:29:30;;;;;;;6.47;5.80;;;;;;;;;;5030573;28;20910;-69
2023/07/03 01:31:57;;;;;;;8.87;5.80;;;;;;;;;;5032007;28;20423;-69
2023/07/03 01:34:23;;;;;;;9.90;5.77;;;;;;;;;;5032350;28;20442;-69
2023/07/03 01:36:50;;;;;;;9.00;5.57;;;;;;;;;;5031477;28;21070;-70
2023/07/03 01:39:16;;;;;;;7.70;6.03;;;;;;;;;;5031488;28;20450;-69
2023/07/03 01:41:43;;;;;;;11.03;5.97;;;;;;;;;;5032226;28;20930;-70
2023/07/03 01:44:09;;;;;;;7.93;5.80;;;;;;;;;;5032434;28;20854;-70
2023/07/03 01:46:35;;;;;;;6.97;5.80;;;;;;;;;;5032709;28;20447;-70
2023/07/03 01:49:01;;;;;;;8.63;6.97;;;;;;;;;;5030709;28;21037;-70
2023/07/03 01:51:32;;;;;;;6.90;6.03;;;;;;;;;;5031692;28;21114;-69
2023/07/03 01:54:06;;;;;;;7.60;6.43;;;;;;;;;;5031963;28;20793;-69
2023/07/03 01:56:35;;;;;;;11.73;6.60;;;;;;;;;;5032573;28;20499;-70
2023/07/03 01:59:05;;;;;;;9.63;6.00;;;;;;;;;;5031038;28;20451;-69
2023/07/03 02:01:55;;;;;;;15.13;6.50;;;;;;;;;;5031645;28;20459;-70
2023/07/03 02:04:26;;;;;;;13.17;6.50;;;;;;;;;;5028730;28;20937;-70
2023/07/03 02:06:53;;;;;;;7.47;5.50;;;;;;;;;;5030955;28;20454;-69
2023/07/03 02:09:19;;;;;;;11.90;7.90;;;;;;;;;;5031419;28;20423;-70
2023/07/03 02:11:47;;;;;;;6.63;6.13;;;;;;;;;;5030174;28;20446;-69
2023/07/03 02:14:13;;;;;;;11.30;6.40;;;;;;;;;;5031703;28;20525;-69
2023/07/03 02:19:28;;;;;;;5.73;5.33;;;;;;;;;;5031179;28;20435;-70
2023/07/03 02:21:54;;;;;;;7.20;5.90;;;;;;;;;;5031244;28;20427;-69
2023/07/03 02:24:21;;;;;;;6.73;5.80;;;;;;;;;;5031849;28;20770;-70
2023/07/03 02:26:47;;;;;;;11.30;6.77;;;;;;;;;;5030149;28;20438;-69
2023/07/03 02:29:13;;;;;;;11.23;6.83;;;;;;;;;;5031071;28;20439;-70
2023/07/03 02:31:39;;;;;;;14.43;5.60;;;;;;;;;;5030651;28;20446;-69
2023/07/03 02:34:05;;;;;;;12.00;6.90;;;;;;;;;;5030111;28;20482;-69
2023/07/03 02:36:34;;;;;;;8.07;6.27;;;;;;;;;;5029841;28;20482;-69
2023/07/03 02:39:01;;;;;;;15.97;6.90;;;;;;;;;;5031064;28;21283;-69
2023/07/03 02:41:27;;;;;;;13.93;6.87;;;;;;;;;;5045844;28;20431;-69
2023/07/03 02:43:53;;;;;;;15.00;7.07;;;;;;;;;;5031164;28;20778;-69
2023/07/03 02:46:19;;;;;;;16.90;6.43;;;;;;;;;;5030476;28;20530;-69
2023/07/03 02:48:46;;;;;;;9.87;6.87;;;;;;;;;;5029775;28;20471;-69
2023/07/03 02:51:12;;;;;;;13.40;7.73;;;;;;;;;;5030206;28;20462;-69
2023/07/03 02:53:38;;;;;;;7.10;5.90;;;;;;;;;;5029959;28;20423;-69
2023/07/03 02:56:04;;;;;;;7.30;5.40;;;;;;;;;;5030537;28;20478;-69
2023/07/03 02:58:30;;;;;;;8.73;6.40;;;;;;;;;;5030416;28;20532;-69
2023/07/03 03:00:56;;;;;;;11.90;6.73;;;;;;;;;;5030398;28;20905;-69
2023/07/03 03:03:23;;;;;;;10.10;6.40;;;;;;;;;;5029104;28;20793;-69
2023/07/03 03:05:49;;;;;;;18.37;9.20;;;;;;;;;;5045380;28;20432;-68
2023/07/03 03:08:15;;;;;;;12.60;6.80;;;;;;;;;;5029828;28;20434;-69
2023/07/03 03:10:41;;;;;;;11.80;7.10;;;;;;;;;;5030034;28;20439;-69
2023/07/03 03:13:07;;;;;;;8.17;6.83;;;;;;;;;;5030120;28;20447;-69
2023/07/03 03:15:34;;;;;;;7.03;6.10;;;;;;;;;;5029620;28;20446;-69
2023/07/03 03:18:00;;;;;;;5.83;5.17;;;;;;;;;;5029371;28;20871;-69
2023/07/03 03:20:26;;;;;;;9.13;5.70;;;;;;;;;;5029841;28;20431;-69
2023/07/03 03:22:52;;;;;;;10.47;6.97;;;;;;;;;;5030452;28;20453;-69
2023/07/03 03:25:18;;;;;;;10.93;6.37;;;;;;;;;;5030449;28;20435;-69
2023/07/03 03:27:44;;;;;;;13.03;6.53;;;;;;;;;;5043425;28;20455;-69
2023/07/03 03:30:10;;;;;;;11.20;7.03;;;;;;;;;;5045308;28;20454;-69
2023/07/03 03:32:36;;;;;;;5.87;5.40;;;;;;;;;;5029801;28;20520;-69
2023/07/03 03:35:02;;;;;;;8.00;6.20;;;;;;;;;;5028909;28;20428;-69
2023/07/03 03:37:28;;;;;;;14.50;6.90;;;;;;;;;;5028997;28;20479;-69
2023/07/03 03:39:54;;;;;;;8.43;5.87;;;;;;;;;;5029885;28;20792;-69
2023/07/03 03:42:20;;;;;;;7.23;6.30;;;;;;;;;;5029305;28;20435;-69
2023/07/03 03:44:46;;;;;;;14.53;7.50;;;;;;;;;;5029210;28;20458;-69
2023/07/03 03:47:12;;;;;;;7.10;6.33;;;;;;;;;;5045007;28;21022;-69
2023/07/03 03:49:39;;;;;;;7.07;6.17;;;;;;;;;;5029078;28;20486;-69
2023/07/03 03:52:05;;;;;;;10.50;6.40;;;;;;;;;;5044680;28;20550;-69
2023/07/03 03:54:31;;;;;;;11.57;7.23;;;;;;;;;;5045472;28;21097;-69
2023/07/03 03:56:57;;;;;;;13.67;6.67;;;;;;;;;;5044637;28;20520;-69
2023/07/03 03:59:23;;;;;;;6.73;6.23;;;;;;;;;;5028535;28;20502;-69
2023/07/03 04:01:50;;;;;;;11.60;6.33;;;;;;;;;;5029186;28;20582;-69
2023/07/03 04:04:18;;;;;;;9.00;6.30;;;;;;;;;;5029679;28;20423;-69
2023/07/03 04:06:43;;;;;;;8.30;6.63;;;;;;;;;;5029554;28;20816;-69
2023/07/03 04:09:10;;;;;;;11.03;6.20;;;;;;;;;;5029635;28;20419;-69
2023/07/03 04:11:36;;;;;;;9.40;6.30;;;;;;;;;;5044352;28;20443;-69
2023/07/03 04:14:02;;;;;;;10.53;6.10;;;;;;;;;;5029463;28;20427;-69
2023/07/03 04:16:30;;;;;;;9.97;6.20;;;;;;;;;;5028835;28;20525;-69
2023/07/03 04:18:56;;;;;;;11.67;6.57;;;;;;;;;;5028258;28;20978;-69
2023/07/03 04:21:22;;;;;;;7.40;5.70;;;;;;;;;;5028601;28;20450;-69
2023/07/03 04:23:48;;;;;;;15.90;6.63;;;;;;;;;;5028498;28;20439;-69
2023/07/03 04:26:15;;;;;;;8.27;6.10;;;;;;;;;;5030368;28;20450;-69
2023/07/03 04:28:41;;;;;;;10.33;7.30;;;;;;;;;;5033153;28;20532;-69
2023/07/03 04:31:07;;;;;;;8.10;5.60;;;;;;;;;;5048233;28;20828;-69
2023/07/03 04:33:33;;;;;;;10.03;5.90;;;;;;;;;;5032721;28;20446;-69
2023/07/03 04:35:59;;;;;;;9.77;6.90;;;;;;;;;;5032500;28;20482;-69
2023/07/03 04:38:25;;;;;;;6.23;5.63;;;;;;;;;;5032942;28;20506;-69
2023/07/03 04:40:53;;;;;;;11.80;6.33;;;;;;;;;;5032982;28;20451;-69
2023/07/03 04:43:19;;;;;;;13.83;6.70;;;;;;;;;;5032547;28;20453;-69
2023/07/03 04:45:47;;;;;;;9.47;6.00;;;;;;;;;;5032896;28;20863;-69
2023/07/03 04:48:13;;;;;;;9.63;5.97;;;;;;;;;;5031297;28;20557;-69
2023/07/03 04:50:39;;;;;;;9.60;5.80;;;;;;;;;;5032013;28;20439;-69
2023/07/03 04:53:05;;;;;;;8.43;6.50;;;;;;;;;;5031994;28;20467;-69
2023/07/03 04:55:32;;;;;;;14.30;6.80;;;;;;;;;;5032473;28;20427;-69
2023/07/03 04:58:02;;;;;;;8.17;6.00;;;;;;;;;;5030637;28;20458;-69
2023/07/03 05:00:28;;;;;;;8.23;6.37;;;;;;;;;;5032782;28;20454;-69
2023/07/03 05:02:58;;;;;;;12.47;6.83;;;;;;;;;;5032512;28;20489;-69
2023/07/03 05:05:24;;;;;;;22.33;6.67;;;;;;;;;;5032048;28;20442;-69
2023/07/03 05:07:50;;;;;;;5.63;5.20;;;;;;;;;;5031478;28;20475;-69
2023/07/03 05:10:17;;;;;;;10.23;6.20;;;;;;;;;;5032395;28;20427;-69
2023/07/03 05:12:43;;;;;;;7.63;6.30;;;;;;;;;;5032858;28;20447;-69
2023/07/03 05:15:10;;;;;;;10.70;6.47;;;;;;;;;;5032480;28;20521;-69
2023/07/03 05:17:38;;;;;;;6.93;6.33;;;;;;;;;;5029698;28;20479;-69
2023/07/03 05:20:06;;;;;;;6.80;5.70;;;;;;;;;;5047459;28;20530;-69
2023/07/03 05:22:32;;;;;;;14.17;8.93;;;;;;;;;;5031959;28;20431;-69
2023/07/03 05:25:00;;;;;;;7.30;6.60;;;;;;;;;;5048135;28;20509;-69
2023/07/03 05:27:26;;;;;;;8.73;6.27;;;;;;;;;;5031259;28;20451;-69
2023/07/03 05:29:54;;;;;;;8.47;5.37;;;;;;;;;;5031493;28;20444;-69
2023/07/03 05:32:20;;;;;;;7.77;6.37;;;;;;;;;;5031374;28;20465;-70
2023/07/03 05:34:46;;;;;;;11.80;6.07;;;;;;;;;;5031823;28;20446;-69
2023/07/03 05:37:12;;;;;;;14.90;6.23;;;;;;;;;;5030420;28;20490;-69
2023/07/03 05:39:38;;;;;;;11.70;6.87;;;;;;;;;;5031845;28;20770;-69
2023/07/03 05:42:04;;;;;;;7.53;6.10;;;;;;;;;;5031616;28;20526;-69
2023/07/03 05:44:30;;;;;;;7.07;6.30;;;;;;;;;;5030412;28;20485;-69
2023/07/03 05:46:56;;;;;;;11.40;5.83;;;;;;;;;;5031912;28;21072;-69
2023/07/03 05:49:22;;;;;;;29.03;7.70;;;;;;;;;;5029979;28;20593;-69
2023/07/03 05:51:48;;;;;;;10.23;6.00;;;;;;;;;;5031656;28;20447;-69
2023/07/03 05:54:16;;;;;;;7.47;6.50;;;;;;;;;;5031420;28;20465;-69
2023/07/03 05:56:43;;;;;;;17.23;7.63;;;;;;;;;;5031635;28;20561;-69
2023/07/03 05:59:09;;;;;;;15.60;5.80;;;;;;;;;;5029999;28;20430;-69
2023/07/03 06:01:34;;;;;;;9.00;6.20;;;;;;;;;;5031760;28;20436;-68
2023/07/03 06:04:02;;;;;;;6.50;5.90;;;;;;;;;;5031436;28;20427;-69
2023/07/03 06:06:28;;;;;;;7.17;5.67;;;;;;;;;;5031208;28;20507;-69
2023/07/03 06:08:54;;;;;;;7.90;5.73;;;;;;;;;;5031360;28;20444;-69
2023/07/03 06:11:19;;;;;;;8.63;6.83;;;;;;;;;;5024985;28;20449;-69
2023/07/03 06:13:45;;;;;;;14.17;5.93;;;;;;;;;;5020020;28;20435;-69
2023/07/03 06:16:12;;;;;;;18.70;7.10;;;;;;;;;;5042479;28;20890;-69
2023/07/03 06:18:38;;;;;;;15.73;6.67;;;;;;;;;;5023073;28;20532;-69
2023/07/03 06:21:04;;;;;;;11.13;6.03;;;;;;;;;;5030376;28;20443;-69
2023/07/03 06:23:30;;;;;;;15.20;5.60;;;;;;;;;;5030432;28;20438;-69
2023/07/03 06:25:56;;;;;;;11.20;7.00;;;;;;;;;;5046476;28;20436;-69
2023/07/03 06:28:22;;;;;;;8.90;6.03;;;;;;;;;;5029825;28;20443;-69
2023/07/03 06:30:49;;;;;;;7.30;6.50;;;;;;;;;;5021924;28;21837;-69
2023/07/03 06:33:15;;;;;;;9.47;6.50;;;;;;;;;;5037516;28;20779;-69
2023/07/03 06:35:41;;;;;;;9.47;6.10;;;;;;;;;;5029605;28;20458;-69
2023/07/03 06:38:07;;;;;;;7.70;6.67;;;;;;;;;;5029838;28;20501;-69
2023/07/03 06:40:33;;;;;;;10.50;7.10;;;;;;;;;;5030300;28;20435;-69
2023/07/03 06:42:59;;;;;;;14.30;6.10;;;;;;;;;;5030492;28;20474;-69
2023/07/03 06:45:25;;;;;;;14.33;8.40;;;;;;;;;;5030756;28;20491;-69
2023/07/03 06:47:51;;;;;;;11.17;6.70;;;;;;;;;;5030234;28;20525;-69
2023/07/03 06:50:17;;;;;;;12.10;7.63;;;;;;;;;;5029747;28;20894;-69
2023/07/03 06:52:45;;;;;;;20.53;7.13;;;;;;;;;;5030706;28;21014;-69
2023/07/03 06:55:11;;;;;;;20.83;6.70;;;;;;;;;;5030774;28;20849;-69
2023/07/03 06:57:37;;;;;;;7.67;5.20;;;;;;;;;;5028228;28;20494;-69
2023/07/03 07:00:05;;;;;;;13.60;6.47;;;;;;;;;;5030360;28;20442;-69
2023/07/03 07:02:31;;;;;;;11.33;6.80;;;;;;;;;;5030272;28;20447;-69
2023/07/03 07:04:57;;;;;;;13.37;6.70;;;;;;;;;;5029699;28;20806;-69
2023/07/03 07:07:23;;;;;;;13.23;6.67;;;;;;;;;;5029526;28;20435;-69
2023/07/03 07:09:49;;;;;;;12.33;5.73;;;;;;;;;;5029963;28;20486;-68
2023/07/03 07:12:15;;;;;;;17.87;6.40;;;;;;;;;;5030712;28;20415;-69
2023/07/03 07:14:41;;;;;;;11.90;5.50;;;;;;;;;;5044694;28;20476;-69
2023/07/03 07:17:07;;;;;;;14.33;6.10;;;;;;;;;;5029765;28;20486;-69
2023/07/03 07:19:33;;;;;;;14.90;6.80;;;;;;;;;;5029084;28;20589;-69
2023/07/03 07:21:59;;;;;;;7.87;6.00;;;;;;;;;;5046663;28;20505;-69
2023/07/03 07:24:27;;;;;;;14.33;5.90;;;;;;;;;;5030338;28;20426;-69
2023/07/03 07:26:54;;;;;;;12.03;6.90;;;;;;;;;;5045320;28;20435;-69
2023/07/03 07:29:21;;;;;;;15.20;7.03;;;;;;;;;;5029475;28;20445;-69
2023/07/03 07:31:47;;;;;;;11.10;6.13;;;;;;;;;;5044147;28;20522;-69
2023/07/03 07:34:13;;;;;;;11.77;6.30;;;;;;;;;;5029781;28;21049;-69
2023/07/03 07:36:41;;;;;;;8.47;6.10;;;;;;;;;;5027075;28;20557;-69
2023/07/03 07:39:08;;;;;;;11.17;5.27;;;;;;;;;;5028210;28;20866;-69
2023/07/03 07:41:34;;;;;;;10.50;5.80;;;;;;;;;;5024497;28;20444;-69
2023/07/03 07:44:00;;;;;;;5.17;4.67;;;;;;;;;;5013425;28;20447;-69
2023/07/03 07:46:29;;;;;;;15.43;6.90;;;;;;;;;;5021973;28;20526;-69
2023/07/03 07:48:56;;;;;;;12.47;6.77;;;;;;;;;;5011729;28;20893;-66
2023/07/03 07:51:21;;;;;;;16.47;6.80;;;;;;;;;;5021871;28;20443;-69
2023/07/03 07:53:47;;;;;;;14.87;6.30;;;;;;;;;;5024656;28;20764;-69
2023/07/03 07:56:14;;;;;;;7.70;5.37;;;;;;;;;;5017505;28;20490;-69
2023/07/03 07:58:40;;;;;;;13.47;5.77;;;;;;;;;;5016123;28;20439;-68
2023/07/03 08:01:06;;;;;;;12.47;5.33;;;;;;;;;;5020289;28;20466;-69
2023/07/03 08:03:32;;;;;;;13.57;7.30;;;;;;;;;;5027514;28;20911;-68
2023/07/03 08:06:03;;;;;;;10.97;6.20;;;;;;;;;;5016643;28;20442;-69
2023/07/03 08:08:30;;;;;;;7.80;6.17;;;;;;;;;;5014389;28;20443;-69
2023/07/03 08:10:57;;;;;;;14.60;6.10;;;;;;;;;;5017625;28;21008;-69
2023/07/03 08:13:23;;;;;;;8.17;5.30;;;;;;;;;;5027798;28;20465;-69
2023/07/03 08:15:51;;;;;;;15.57;5.30;;;;;;;;;;5024668;28;20481;-69
2023/07/03 08:18:17;;;;;;;15.80;5.67;;;;;;;;;;5026000;28;20475;-69
2023/07/03 08:20:44;;;;;;;12.17;5.70;;;;;;;;;;5026814;28;20442;-69
2023/07/03 08:23:10;;;;;;;10.03;5.77;;;;;;;;;;5027990;28;20427;-69
2023/07/03 08:25:36;;;;;;;8.77;5.20;;;;;;;;;;5027461;28;20431;-69
2023/07/03 08:28:02;;;;;;;11.77;5.90;;;;;;;;;;5026347;28;20429;-69
2023/07/03 08:30:28;;;;;;;6.73;4.43;;;;;;;;;;5027577;28;20192;-69
2023/07/03 08:32:54;;;;;;;11.00;5.63;;;;;;;;;;5028016;28;20426;-69
2023/07/03 08:35:20;;;;;;;18.17;5.10;;;;;;;;;;5027519;28;20522;-69
2023/07/03 08:37:46;;;;;;;10.30;5.40;;;;;;;;;;5026500;28;20573;-69
2023/07/03 08:40:16;;;;;;;12.00;5.57;;;;;;;;;;5028000;28;20439;-69
2023/07/03 08:42:47;;;;;;;11.43;4.97;;;;;;;;;;5027937;28;20926;-69
2023/07/03 08:45:13;;;;;;;12.43;5.77;;;;;;;;;;5028328;28;20412;-69
2023/07/03 08:47:40;;;;;;;12.47;5.40;;;;;;;;;;5026507;28;20439;-69
2023/07/03 08:50:07;;;;;;;10.00;5.97;;;;;;;;;;5026933;28;20570;-69
2023/07/03 08:52:38;;;;;;;12.60;5.70;;;;;;;;;;5027735;28;20485;-69
2023/07/03 08:55:06;;;;;;;11.07;5.33;;;;;;;;;;5027619;28;20496;-68
2023/07/03 08:57:32;;;;;;;7.43;5.00;;;;;;;;;;5026216;28;20589;-69
2023/07/03 08:59:58;;;;;;;18.07;6.63;;;;;;;;;;5027810;28;20498;-69
2023/07/03 09:02:34;;;;;;;8.57;5.00;;;;;;;;;;5027488;28;20427;-69
2023/07/03 09:05:13;;;;;;;7.57;5.40;;;;;;;;;;5027366;28;20809;-70
2023/07/03 09:07:43;;;;;;;8.47;5.57;;;;;;;;;;5041493;28;20471;-69
2023/07/03 09:10:19;;;;;;;14.60;6.17;;;;;;;;;;5027471;28;20446;-69
2023/07/03 09:12:54;;;;;;;13.37;6.30;;;;;;;;;;5029729;28;20449;-69
2023/07/03 09:15:29;;;;;;;10.23;4.60;;;;;;;;;;5030461;28;20449;-70
2023/07/03 09:17:57;;;;;;;11.60;4.80;;;;;;;;;;5030251;28;20466;-69
2023/07/03 09:20:24;;;;;;;36.77;16.20;;;;;;;;;;5030509;28;21004;-69
2023/07/03 09:22:53;;;;;;;6.37;5.33;;;;;;;;;;5027604;28;20454;-69
2023/07/03 09:25:24;;;;;;;13.43;5.37;;;;;;;;;;5046300;28;20426;-69
2023/07/03 09:27:53;;;;;;;12.57;5.17;;;;;;;;;;5045452;28;20542;-70
2023/07/03 09:30:19;;;;;;;13.73;5.43;;;;;;;;;;5030717;28;20791;-70
2023/07/03 09:32:45;;;;;;;7.80;4.30;;;;;;;;;;5030900;28;20926;-69
2023/07/03 09:35:19;;;;;;;8.27;5.10;;;;;;;;;;5030282;28;20614;-69
2023/07/03 09:37:58;;;;;;;8.33;4.20;;;;;;;;;;5029270;28;20548;-69
2023/07/03 09:40:24;;;;;;;7.67;4.00;;;;;;;;;;5030543;28;20419;-69
2023/07/03 09:42:51;;;;;;;8.07;4.40;;;;;;;;;;5030892;28;20527;-69
2023/07/03 09:45:18;;;;;;;24.97;4.90;;;;;;;;;;5023473;28;20478;-69
2023/07/03 09:47:52;;;;;;;10.40;4.73;;;;;;;;;;5019177;28;20458;-69
2023/07/03 09:50:24;;;;;;;5.80;3.83;;;;;;;;;;5029039;28;20466;-69
2023/07/03 09:52:54;;;;;;;6.63;3.70;;;;;;;;;;5028955;28;20505;-69
2023/07/03 09:55:21;;;;;;;5.53;4.47;;;;;;;;;;5029830;28;20470;-70
2023/07/03 09:57:47;;;;;;;4.30;3.60;;;;;;;;;;5044508;28;20493;-69
2023/07/03 10:00:15;;;;;;;9.80;4.40;;;;;;;;;;5029965;28;20934;-69
2023/07/03 10:02:44;;;;;;;6.93;4.37;;;;;;;;;;5029547;28;20924;-69
2023/07/03 10:05:14;;;;;;;5.20;3.90;;;;;;;;;;5029389;28;20962;-69
2023/07/03 10:07:42;;;;;;;9.20;4.77;;;;;;;;;;5029219;28;20435;-69
2023/07/03 10:10:12;;;;;;;7.73;4.20;;;;;;;;;;5045411;28;21000;-69
2023/07/03 10:12:40;;;;;;;4.33;3.93;;;;;;;;;;5029527;28;20436;-70
2023/07/03 10:15:06;;;;;;;9.50;3.93;;;;;;;;;;5029417;28;20431;-70
2023/07/03 10:17:38;;;;;;;9.33;4.60;;;;;;;;;;5029363;28;20495;-67
2023/07/03 10:20:09;;;;;;;4.47;3.50;;;;;;;;;;5028068;28;20435;-66
2023/07/03 10:22:37;;;;;;;11.53;3.93;;;;;;;;;;5029319;28;20435;-65
2023/07/03 10:25:06;;;;;;;6.83;4.20;;;;;;;;;;5043846;28;20796;-65
2023/07/03 10:27:34;;;;;;;9.73;4.20;;;;;;;;;;5043988;28;20435;-81
2023/07/03 10:30:00;;;;;;;6.50;4.20;;;;;;;;;;5028660;28;20446;-69
2023/07/03 10:32:28;;;;;;;3.63;2.87;;;;;;;;;;5029264;28;20426;-69
2023/07/03 10:34:57;;;;;;;5.80;3.57;;;;;;;;;;5028245;28;20436;-69
2023/07/03 10:37:25;;;;;;;5.20;3.50;;;;;;;;;;5028565;28;20495;-70
2023/07/03 10:39:56;;;;;;;6.90;3.60;;;;;;;;;;5041277;28;20900;-69
2023/07/03 10:42:33;;;;;;;11.20;4.03;;;;;;;;;;5029053;28;20760;-69
2023/07/03 10:45:12;;;;;;;5.50;3.20;;;;;;;;;;5029322;28;20435;-70
2023/07/03 10:47:38;;;;;;;6.10;3.70;;;;;;;;;;5028375;28;20443;-69
2023/07/03 10:50:05;;;;;;;8.67;3.77;;;;;;;;;;5028787;28;20485;-69
2023/07/03 10:52:35;;;;;;;9.87;3.63;;;;;;;;;;5028545;28;20188;-69
2023/07/03 10:55:04;;;;;;;4.03;3.63;;;;;;;;;;5029700;28;20790;-69
2023/07/03 10:57:49;;;;;;;5.90;3.87;;;;;;;;;;5027223;28;20486;-69
2023/07/03 11:00:18;;;;;;;3.70;3.17;;;;;;;;;;5029004;28;20455;-70
2023/07/03 11:02:51;;;;;;;5.23;2.93;;;;;;;;;;5044869;28;20931;-70
2023/07/03 11:05:20;;;;;;;3.63;3.40;;;;;;;;;;5027705;28;20835;-69
2023/07/03 11:07:50;;;;;;;4.57;2.63;;;;;;;;;;5026996;28;20447;-70
2023/07/03 11:10:23;;;;;;;7.97;4.60;;;;;;;;;;5043208;28;20426;-70
2023/07/03 11:13:12;;;;;;;9.80;4.23;;;;;;;;;;5026660;28;20435;-69
2023/07/03 11:15:44;;;;;;;7.00;3.43;;;;;;;;;;5024978;28;20530;-70
2023/07/03 11:18:10;;;;;;;2.83;2.63;;;;;;;;;;5027982;28;20873;-69
2023/07/03 11:20:57;;;;;;;4.20;2.60;;;;;;;;;;5026832;28;20446;-70
2023/07/03 11:23:30;;;;;;;3.70;3.10;;;;;;;;;;5029016;28;20799;-70
2023/07/03 11:26:05;;;;;;;3.53;3.33;;;;;;;;;;5028129;28;20427;-69
2023/07/03 11:28:36;;;;;;;4.57;3.07;;;;;;;;;;5027592;28;20882;-70
2023/07/03 11:31:04;;;;;;;4.00;3.07;;;;;;;;;;5027298;28;20450;-69
2023/07/03 11:33:33;;;;;;;4.60;3.37;;;;;;;;;;5027409;28;20523;-69
2023/07/03 11:36:00;;;;;;;4.07;2.90;;;;;;;;;;5025354;28;20466;-69
2023/07/03 11:38:26;;;;;;;3.03;2.93;;;;;;;;;;5026174;28;20450;-70
2023/07/03 11:40:55;;;;;;;5.30;3.17;;;;;;;;;;5026847;28;20419;-70
2023/07/03 11:43:33;;;;;;;3.53;3.23;;;;;;;;;;5026897;28;21372;-70
2023/07/03 11:45:59;;;;;;;9.00;3.43;;;;;;;;;;5042098;28;20439;-69
2023/07/03 11:48:30;;;;;;;3.10;2.77;;;;;;;;;;5040375;28;20470;-70
2023/07/03 11:51:15;;;;;;;6.63;4.60;;;;;;;;;;5027002;28;20192;-69
2023/07/03 11:53:54;;;;;;;9.67;3.13;;;;;;;;;;5028616;28;20919;-71
2023/07/03 11:56:35;;;;;;;3.63;3.10;;;;;;;;;;5028395;28;20514;-70
2023/07/03 11:59:10;;;;;;;7.10;3.03;;;;;;;;;;5027535;28;20994;-70
2023/07/03 12:01:37;;;;;;;4.80;3.37;;;;;;;;;;5029091;28;20458;-69
2023/07/03 12:04:05;;;;;;;9.90;3.40;;;;;;;;;;5028257;28;20522;-69
2023/07/03 12:06:40;;;;;;;8.33;3.80;;;;;;;;;;5028954;28;20453;-69
2023/07/03 12:09:21;;;;;;;14.27;3.83;;;;;;;;;;5027463;28;20480;-70
2023/07/03 12:12:08;;;;;;;4.37;3.20;;;;;;;;;;5026191;28;20443;-70
2023/07/03 12:14:40;;;;;;;4.37;2.97;;;;;;;;;;5029190;28;20427;-70
2023/07/03 12:17:18;;;;;;;2.77;2.57;;;;;;;;;;5043454;28;20922;-70
2023/07/03 12:19:44;;;;;;;3.90;3.10;;;;;;;;;;5028411;28;20546;-70
2023/07/03 12:22:18;;;;;;;3.60;3.37;;;;;;;;;;5042633;28;20439;-70
2023/07/03 12:24:44;;;;;;;3.37;3.17;;;;;;;;;;5029561;28;20541;-70
2023/07/03 12:27:10;;;;;;;5.27;3.23;;;;;;;;;;5028489;28;20420;-70
2023/07/03 12:29:47;;;;;;;2.67;2.57;;;;;;;;;;5028756;28;20806;-69
2023/07/03 12:32:13;;;;;;;3.50;3.30;;;;;;;;;;5029090;28;20514;-69
2023/07/03 12:34:40;;;;;;;2.93;2.83;;;;;;;;;;5027831;28;20482;-70
2023/07/03 12:37:09;;;;;;;3.60;2.90;;;;;;;;;;5028390;28;20848;-70
2023/07/03 12:39:35;;;;;;;7.80;2.97;;;;;;;;;;5028002;28;20430;-70
2023/07/03 12:42:08;;;;;;;4.50;3.37;;;;;;;;;;5026918;28;20439;-70
2023/07/03 12:44:34;;;;;;;4.03;3.40;;;;;;;;;;5028484;28;20427;-69
2023/07/03 12:47:11;;;;;;;5.47;3.37;;;;;;;;;;5029975;28;20508;-69
2023/07/03 12:49:47;;;;;;;6.17;3.03;;;;;;;;;;5029114;28;20518;-69
2023/07/03 12:52:14;;;;;;;3.20;2.90;;;;;;;;;;5030720;28;20986;-70
2023/07/03 12:54:40;;;;;;;4.97;3.23;;;;;;;;;;5029782;28;20455;-70
2023/07/03 12:57:08;;;;;;;9.77;3.03;;;;;;;;;;5030213;28;20556;-69
2023/07/03 12:59:35;;;;;;;2.90;2.80;;;;;;;;;;5029006;28;20930;-69
2023/07/03 13:02:01;;;;;;;2.70;2.50;;;;;;;;;;5032183;28;20446;-70
2023/07/03 13:04:28;;;;;;;7.80;2.70;;;;;;;;;;5031549;28;20653;-70
2023/07/03 13:06:55;;;;;;;3.27;3.10;;;;;;;;;;5032723;28;20439;-69
2023/07/03 13:09:21;;;;;;;5.00;3.13;;;;;;;;;;5031464;28;20447;-66
2023/07/03 13:11:47;;;;;;;3.07;2.50;;;;;;;;;;5047195;28;20435;-69
2023/07/03 13:14:25;;;;;;;4.03;3.03;;;;;;;;;;5032139;28;20475;-71
2023/07/03 13:16:52;;;;;;;3.13;2.93;;;;;;;;;;5031728;28;20486;-69
2023/07/03 13:19:25;;;;;;;2.80;2.70;;;;;;;;;;5032299;28;20506;-70
2023/07/03 13:21:51;;;;;;;2.93;2.73;;;;;;;;;;5032641;28;20542;-70
2023/07/03 13:24:17;;;;;;;5.40;3.40;;;;;;;;;;5032051;28;20926;-70
2023/07/03 13:26:47;;;;;;;5.43;2.63;;;;;;;;;;5032440;28;20973;-71
2023/07/03 13:29:14;;;;;;;2.73;2.37;;;;;;;;;;5029150;28;20489;-70
2023/07/03 13:31:40;;;;;;;11.30;3.00;;;;;;;;;;5031765;28;20443;-69
2023/07/03 13:34:11;;;;;;;3.80;2.30;;;;;;;;;;5031380;28;20454;-70
2023/07/03 13:36:41;;;;;;;6.27;3.03;;;;;;;;;;5031398;28;21682;-69
2023/07/03 13:39:07;;;;;;;3.00;2.80;;;;;;;;;;5046032;28;20545;-69
2023/07/03 13:41:33;;;;;;;4.03;2.90;;;;;;;;;;5030084;28;20529;-69
2023/07/03 13:43:59;;;;;;;2.47;2.37;;;;;;;;;;5030518;28;20695;-69
2023/07/03 13:46:26;;;;;;;3.23;2.50;;;;;;;;;;5029168;28;20431;-70
2023/07/03 13:48:55;;;;;;;7.57;2.93;;;;;;;;;;5044397;28;21127;-69
2023/07/03 13:51:22;;;;;;;2.13;2.03;;;;;;;;;;5030476;28;20434;-69
2023/07/03 13:53:48;;;;;;;4.80;2.83;;;;;;;;;;5030655;28;20431;-69
2023/07/03 13:56:14;;;;;;;5.27;2.67;;;;;;;;;;5030526;28;20548;-69
2023/07/03 13:58:40;;;;;;;2.60;1.80;;;;;;;;;;5024642;28;20877;-69
2023/07/03 14:01:06;;;;;;;5.20;2.30;;;;;;;;;;5029663;28;20458;-69
2023/07/03 14:03:32;;;;;;;2.30;2.20;;;;;;;;;;5028503;28;20438;-69
2023/07/03 14:05:58;;;;;;;3.90;2.17;;;;;;;;;;5030251;28;20442;-69
2023/07/03 14:08:27;;;;;;;3.13;2.13;;;;;;;;;;5029538;28;20435;-69
2023/07/03 14:10:53;;;;;;;2.40;2.30;;;;;;;;;;5030004;28;20521;-69
2023/07/03 14:13:19;;;;;;;2.90;2.70;;;;;;;;;;5029989;28;20508;-69
2023/07/03 14:15:45;;;;;;;4.63;2.57;;;;;;;;;;5030097;28;20428;-69
2023/07/03 14:18:11;;;;;;;3.67;2.27;;;;;;;;;;5029105;28;20485;-69
2023/07/03 14:20:37;;;;;;;2.40;2.30;;;;;;;;;;5029561;28;21009;-69
2023/07/03 14:23:05;;;;;;;2.97;1.90;;;;;;;;;;5029544;28;20795;-69
2023/07/03 14:25:31;;;;;;;2.10;1.80;;;;;;;;;;5030183;28;20423;-69
2023/07/03 14:27:58;;;;;;;2.83;2.60;;;;;;;;;;5028722;28;20436;-69
2023/07/03 14:30:24;;;;;;;1.60;1.60;;;;;;;;;;5028782;28;20447;-69
2023/07/03 14:32:51;;;;;;;2.67;1.90;;;;;;;;;;5029197;28;20786;-69
2023/07/03 14:35:17;;;;;;;4.33;2.50;;;;;;;;;;5027604;28;20442;-69
2023/07/03 14:37:43;;;;;;;4.47;2.57;;;;;;;;;;5027875;28;20486;-69
2023/07/03 14:40:10;;;;;;;2.03;1.93;;;;;;;;;;5029725;28;20450;-69
2023/07/03 14:42:36;;;;;;;5.60;1.57;;;;;;;;;;5029157;28;20474;-69
2023/07/03 14:45:03;;;;;;;3.07;2.73;;;;;;;;;;5029329;28;20432;-70